Time;durP1;ratioP1;P1;durP2;ratioP2;P2;SDS_P1;SDS_P2;PMS_P1;PMS_P2;Temp;Humidity;BMP_temperature;BMP_pressure;BME280_temperature;BME280_humidity;BME280_pressure;Samples;Min_cycle;Max_cycle;Signal;HPM_P1;HPM_P2
2022/11/04 00:01:43;;;;;;;5.43;1.20;;;11.70;99.90;;;;;;4990682;28;20203;-81
2022/11/04 00:04:11;;;;;;;5.80;1.30;;;11.70;99.90;;;;;;5006466;28;20211;-81
2022/11/04 00:06:39;;;;;;;6.77;1.47;;;11.70;99.90;;;;;;5005203;28;20223;-81
2022/11/04 00:09:09;;;;;;;6.23;1.30;;;11.70;99.90;;;;;;5005916;28;20795;-80
2022/11/04 00:14:22;;;;;;;4.10;0.93;;;11.70;99.90;;;;;;5003240;28;20238;-78
2022/11/04 00:28:41;;;;;;;7.23;1.17;;;11.70;99.90;;;;;;5009454;28;20245;-79
2022/11/04 00:30:35;;;;;;;5.37;1.47;;;11.70;99.90;;;;;;5006383;28;20322;-78
2022/11/04 00:35:50;;;;;;;3.83;0.80;;;11.60;99.90;;;;;;4986775;28;20313;-79
2022/11/04 00:38:17;;;;;;;5.47;1.00;;;11.60;99.90;;;;;;4988317;28;20203;-78
2022/11/04 00:40:45;;;;;;;2.80;0.80;;;11.60;99.90;;;;;;5006657;28;20222;-78
2022/11/04 00:43:12;;;;;;;5.67;1.17;;;11.60;99.90;;;;;;5002551;28;20219;-78
2022/11/04 00:45:41;;;;;;;2.73;0.97;;;11.60;99.90;;;;;;4987297;28;20230;-78
2022/11/04 00:48:08;;;;;;;6.30;1.23;;;11.70;99.90;;;;;;4988933;28;20204;-81
2022/11/04 00:50:35;;;;;;;7.37;1.33;;;11.70;99.90;;;;;;5001936;28;20213;-81
2022/11/04 00:53:03;;;;;;;3.17;1.10;;;11.60;99.90;;;;;;5007313;28;20273;-80
2022/11/04 00:55:29;;;;;;;5.90;1.80;;;11.60;99.90;;;;;;4993127;28;20204;-80
2022/11/04 00:57:58;;;;;;;3.20;1.13;;;11.60;99.90;;;;;;4988669;28;20211;-82
2022/11/04 01:00:25;;;;;;;3.17;0.97;;;11.60;99.90;;;;;;4990551;28;20217;-81
2022/11/04 01:02:52;;;;;;;4.00;1.20;;;11.60;99.90;;;;;;4988494;28;20207;-80
2022/11/04 01:05:19;;;;;;;5.17;1.23;;;11.60;99.90;;;;;;4988303;28;20216;-81
2022/11/04 01:07:46;;;;;;;5.27;1.27;;;11.60;99.90;;;;;;5008345;28;20225;-81
2022/11/04 01:10:13;;;;;;;4.70;1.40;;;11.60;99.90;;;;;;5006688;28;20200;-82
2022/11/04 01:12:39;;;;;;;2.83;0.90;;;11.60;99.90;;;;;;5001889;28;20207;-79
2022/11/04 01:15:09;;;;;;;4.67;1.00;;;11.50;99.90;;;;;;5011069;28;20214;-86
2022/11/04 01:17:36;;;;;;;3.47;1.00;;;11.50;99.90;;;;;;5009824;28;20302;-81
2022/11/04 01:20:03;;;;;;;2.93;0.87;;;11.50;99.90;;;;;;5012432;28;20218;-85
2022/11/04 01:22:30;;;;;;;5.50;1.23;;;11.50;99.90;;;;;;5010414;28;20210;-84
2022/11/04 01:24:56;;;;;;;1.73;0.80;;;11.50;99.90;;;;;;4992737;28;20242;-86
2022/11/04 01:27:23;;;;;;;7.53;2.13;;;11.40;99.90;;;;;;4990949;28;20250;-82
2022/11/04 01:29:50;;;;;;;3.47;1.27;;;11.40;99.90;;;;;;4991906;28;20600;-84
2022/11/04 01:32:19;;;;;;;4.57;1.67;;;11.40;99.90;;;;;;4988582;28;20210;-83
2022/11/04 01:34:47;;;;;;;4.97;1.43;;;11.40;99.90;;;;;;4989376;28;20208;-83
2022/11/04 01:37:13;;;;;;;4.87;2.07;;;11.40;99.90;;;;;;4987103;28;20207;-81
2022/11/04 01:39:40;;;;;;;3.80;1.70;;;11.30;99.90;;;;;;5001029;28;20233;-86
2022/11/04 01:42:10;;;;;;;3.67;1.27;;;11.30;99.90;;;;;;5012654;28;20203;-84
2022/11/04 01:44:55;;;;;;;3.53;1.30;;;11.20;99.90;;;;;;4997441;28;20218;-82
2022/11/04 01:47:31;;;;;;;2.77;1.30;;;11.20;99.90;;;;;;4994909;28;20309;-84
2022/11/04 01:50:02;;;;;;;5.23;1.30;;;11.10;99.90;;;;;;5011680;28;20211;-86
2022/11/04 01:52:34;;;;;;;5.00;1.53;;;11.10;99.90;;;;;;5012798;28;20294;-85
2022/11/04 01:55:06;;;;;;;2.60;1.00;;;11.00;99.90;;;;;;5005642;28;20553;-86
2022/11/04 01:57:38;;;;;;;2.33;0.80;;;11.00;99.90;;;;;;4989461;28;20204;-87
2022/11/04 02:00:08;;;;;;;2.40;0.87;;;11.00;99.90;;;;;;4988246;28;20196;-81
2022/11/04 02:02:41;;;;;;;3.43;1.23;;;10.90;99.90;;;;;;5002088;28;20308;-81
2022/11/04 02:05:09;;;;;;;5.93;1.53;;;10.80;99.90;;;;;;5005264;28;20203;-81
2022/11/04 02:07:36;;;;;;;1.63;0.80;;;10.70;99.90;;;;;;5005139;28;20231;-86
2022/11/04 02:10:04;;;;;;;3.63;0.67;;;10.60;99.90;;;;;;5011801;28;20219;-84
2022/11/04 02:15:15;;;;;;;2.30;0.77;;;10.50;99.90;;;;;;4993376;28;20755;-85
2022/11/04 02:18:05;;;;;;;2.00;0.60;;;10.40;99.90;;;;;;5004871;28;20206;-85
2022/11/04 02:20:49;;;;;;;1.90;0.70;;;10.40;99.90;;;;;;5011757;28;20286;-83
2022/11/04 02:23:44;;;;;;;1.67;0.70;;;10.40;99.90;;;;;;5011483;28;20241;-84
2022/11/04 02:26:46;;;;;;;3.40;1.03;;;10.30;99.90;;;;;;5011720;28;20237;-85
2022/11/04 02:29:37;;;;;;;1.37;0.70;;;10.30;99.90;;;;;;5011159;28;20261;-87
2022/11/04 02:32:12;;;;;;;1.70;0.60;;;10.30;99.90;;;;;;5012096;28;20202;-85
2022/11/04 02:34:50;;;;;;;3.33;0.90;;;10.30;99.90;;;;;;5010688;28;20207;-85
2022/11/04 02:37:31;;;;;;;3.70;0.70;;;10.30;99.90;;;;;;5010769;28;20497;-87
2022/11/04 02:40:08;;;;;;;3.00;0.70;;;10.30;99.90;;;;;;4997478;28;20211;-85
2022/11/04 02:42:41;;;;;;;0.97;0.50;;;10.30;99.90;;;;;;4992229;28;20206;-87
2022/11/04 02:45:17;;;;;;;3.30;0.60;;;10.20;99.90;;;;;;5005727;28;20585;-86
2022/11/04 02:47:49;;;;;;;0.87;0.60;;;10.30;99.90;;;;;;5011005;28;20211;-85
2022/11/04 02:50:25;;;;;;;3.43;0.90;;;10.30;99.90;;;;;;5008996;28;20210;-86
2022/11/04 02:52:59;;;;;;;1.47;0.70;;;10.30;99.90;;;;;;4991472;28;20806;-83
2022/11/04 02:55:29;;;;;;;0.97;0.57;;;10.30;99.90;;;;;;4991371;28;20228;-88
2022/11/04 02:58:00;;;;;;;1.60;0.90;;;10.30;99.90;;;;;;4991700;28;20218;-87
2022/11/04 03:00:29;;;;;;;2.47;0.70;;;10.30;99.90;;;;;;5002937;28;20210;-87
2022/11/04 03:03:00;;;;;;;2.70;1.00;;;10.30;99.90;;;;;;5009407;28;20234;-86
2022/11/04 03:05:31;;;;;;;2.30;0.83;;;10.30;99.90;;;;;;4999808;28;20616;-88
2022/11/04 03:08:02;;;;;;;1.37;0.80;;;10.40;99.90;;;;;;4991641;28;20219;-88
2022/11/04 03:10:35;;;;;;;3.00;1.30;;;10.40;99.90;;;;;;4998508;28;20211;-87
2022/11/04 03:13:09;;;;;;;1.37;0.80;;;10.40;99.90;;;;;;5010868;28;20207;-87
2022/11/04 03:15:39;;;;;;;3.93;1.03;;;10.40;99.90;;;;;;5010492;28;20509;-87
2022/11/04 03:18:17;;;;;;;1.87;0.97;;;10.40;99.90;;;;;;5010886;28;20302;-88
2022/11/04 03:20:47;;;;;;;3.50;1.00;;;10.50;99.90;;;;;;5008573;28;20207;-79
2022/11/04 03:23:15;;;;;;;1.97;1.20;;;10.50;99.90;;;;;;5007640;28;20230;-82
2022/11/04 03:25:45;;;;;;;2.23;0.90;;;10.50;99.90;;;;;;5006415;28;20206;-87
2022/11/04 03:28:23;;;;;;;2.03;1.00;;;10.50;99.90;;;;;;4995169;28;20671;-88
2022/11/04 03:30:56;;;;;;;3.10;1.20;;;10.50;99.90;;;;;;4991196;28;20192;-86
2022/11/04 03:33:28;;;;;;;4.93;1.20;;;10.50;99.90;;;;;;5005911;28;20210;-85
2022/11/04 03:35:55;;;;;;;4.90;1.40;;;10.50;99.90;;;;;;5004438;28;20231;-81
2022/11/04 03:38:23;;;;;;;2.10;1.00;;;10.50;99.90;;;;;;4999062;28;20215;-83
2022/11/04 03:40:50;;;;;;;4.00;1.10;;;10.50;99.90;;;;;;5005843;28;20682;-80
2022/11/04 03:43:23;;;;;;;5.40;1.27;;;10.50;99.90;;;;;;5006438;28;20311;-80
2022/11/04 03:45:51;;;;;;;4.87;1.07;;;10.60;99.90;;;;;;5005904;28;20211;-82
2022/11/04 03:48:18;;;;;;;3.67;1.17;;;10.50;99.90;;;;;;4998880;28;20223;-84
2022/11/04 03:50:47;;;;;;;4.37;0.90;;;10.60;99.90;;;;;;5006250;28;20892;-87
2022/11/04 03:53:17;;;;;;;3.47;1.50;;;10.50;99.90;;;;;;5009772;28;20223;-80
2022/11/04 03:55:56;;;;;;;5.10;1.13;;;10.50;99.90;;;;;;4996659;28;20596;-81
2022/11/04 03:58:31;;;;;;;3.50;1.20;;;10.50;99.90;;;;;;5010686;28;20730;-83
2022/11/04 04:01:09;;;;;;;7.53;1.83;;;10.50;99.90;;;;;;5011122;28;20190;-84
2022/11/04 04:03:44;;;;;;;7.87;1.30;;;10.40;99.90;;;;;;5010810;28;20495;-82
2022/11/04 04:06:18;;;;;;;10.83;1.47;;;10.50;99.90;;;;;;5010407;28;20229;-83
2022/11/04 04:08:51;;;;;;;4.30;1.07;;;10.40;99.90;;;;;;5009942;28;20203;-81
2022/11/04 04:11:21;;;;;;;4.90;0.87;;;10.40;99.90;;;;;;5011299;28;20191;-81
2022/11/04 04:13:53;;;;;;;6.53;1.10;;;10.40;99.90;;;;;;4996701;28;20626;-81
2022/11/04 04:16:30;;;;;;;5.07;1.10;;;10.40;99.90;;;;;;4993403;28;20203;-80
2022/11/04 04:19:01;;;;;;;7.03;1.40;;;10.40;99.90;;;;;;4992084;28;20207;-85
2022/11/04 04:21:35;;;;;;;4.43;1.50;;;10.30;99.90;;;;;;5008159;28;20301;-84
2022/11/04 04:29:38;;;;;;;5.13;1.20;;;10.20;99.90;;;;;;4990577;28;20188;-83
2022/11/04 04:32:07;;;;;;;4.97;1.00;;;10.20;99.90;;;;;;4991478;28;20212;-82
2022/11/04 04:34:34;;;;;;;5.33;1.27;;;10.20;99.90;;;;;;4990548;28;20212;-81
2022/11/04 04:37:05;;;;;;;5.43;1.33;;;10.30;99.90;;;;;;4991988;28;20664;-80
2022/11/04 04:45:07;;;;;;;2.20;1.20;;;10.30;99.90;;;;;;4997945;28;20619;-82
2022/11/04 04:47:44;;;;;;;4.27;1.30;;;10.20;99.90;;;;;;5010105;28;20227;-87
2022/11/04 04:50:15;;;;;;;5.67;1.50;;;10.30;99.90;;;;;;5010840;28;20206;-82
2022/11/04 04:52:45;;;;;;;2.50;1.10;;;10.20;99.90;;;;;;5009059;28;20228;-83
2022/11/04 04:55:12;;;;;;;6.83;1.53;;;10.30;99.90;;;;;;5008875;28;20651;-82
2022/11/04 04:57:39;;;;;;;4.80;1.60;;;10.30;99.90;;;;;;5006928;28;20214;-80
2022/11/04 05:00:09;;;;;;;4.17;1.40;;;10.30;99.90;;;;;;5009111;28;20210;-82
2022/11/04 05:02:37;;;;;;;2.70;1.20;;;10.20;99.90;;;;;;5006344;28;20208;-88
2022/11/04 05:05:04;;;;;;;4.30;1.60;;;10.20;99.90;;;;;;5013478;28;20504;-88
2022/11/04 05:07:31;;;;;;;3.47;1.40;;;10.20;99.90;;;;;;4999996;28;20230;-86
2022/11/04 05:09:58;;;;;;;4.43;1.30;;;10.20;99.90;;;;;;4993430;28;20528;-82
2022/11/04 05:12:25;;;;;;;2.23;1.40;;;10.20;99.90;;;;;;4991187;28;20585;-84
2022/11/04 05:14:52;;;;;;;6.00;2.03;;;10.20;99.90;;;;;;5003112;28;20207;-81
2022/11/04 05:17:19;;;;;;;4.03;1.20;;;10.20;99.90;;;;;;5010646;28;20208;-84
2022/11/04 05:19:47;;;;;;;2.13;0.93;;;10.20;99.90;;;;;;5009108;28;20214;-80
2022/11/04 05:22:14;;;;;;;0.97;0.80;;;10.20;99.90;;;;;;5010964;28;20207;-82
2022/11/04 05:24:41;;;;;;;2.40;0.97;;;10.20;99.90;;;;;;5009142;28;20218;-84
2022/11/04 05:27:08;;;;;;;2.50;1.13;;;10.10;99.90;;;;;;5010182;28;20230;-83
2022/11/04 05:29:34;;;;;;;1.77;1.00;;;10.10;99.90;;;;;;5005411;28;20207;-83
2022/11/04 05:32:01;;;;;;;3.10;1.10;;;10.10;99.90;;;;;;4990695;28;20959;-84
2022/11/04 05:34:28;;;;;;;2.33;1.10;;;10.10;99.90;;;;;;5001937;28;20655;-83
2022/11/04 05:36:56;;;;;;;3.00;0.93;;;10.10;99.90;;;;;;5008477;28;20563;-80
2022/11/04 05:39:23;;;;;;;0.80;0.70;;;10.10;99.90;;;;;;5009785;28;20207;-86
2022/11/04 05:41:50;;;;;;;1.73;1.07;;;10.10;99.90;;;;;;4991180;28;20227;-83
2022/11/04 05:44:17;;;;;;;2.03;1.33;;;10.10;99.90;;;;;;4990760;28;20203;-85
2022/11/04 05:46:43;;;;;;;5.63;1.63;;;10.10;99.90;;;;;;5001038;28;20643;-84
2022/11/04 05:49:11;;;;;;;2.80;1.27;;;10.10;99.90;;;;;;5019404;22;20328;-87
2022/11/04 05:51:38;;;;;;;2.57;1.20;;;10.10;99.90;;;;;;5002308;28;20203;-84
2022/11/04 05:54:06;;;;;;;5.73;1.53;;;10.10;99.90;;;;;;4990385;28;20231;-83
2022/11/04 05:56:33;;;;;;;2.63;1.23;;;10.10;99.90;;;;;;4991985;28;20204;-86
2022/11/04 05:59:00;;;;;;;3.73;2.43;;;10.00;99.90;;;;;;5009696;28;20199;-82
2022/11/04 06:01:30;;;;;;;8.10;3.17;;;10.00;99.90;;;;;;5010041;28;20257;-86
2022/11/04 06:03:59;;;;;;;6.73;3.17;;;10.00;99.90;;;;;;5010751;28;20207;-87
2022/11/04 06:06:28;;;;;;;3.57;2.20;;;10.00;99.90;;;;;;5009769;28;20369;-84
2022/11/04 06:08:56;;;;;;;3.57;1.97;;;10.00;99.90;;;;;;4997006;28;20262;-83
2022/11/04 06:11:25;;;;;;;2.10;1.67;;;10.00;99.90;;;;;;4991002;28;20491;-85
2022/11/04 06:13:53;;;;;;;4.27;2.20;;;10.00;99.90;;;;;;5000655;28;20524;-86
2022/11/04 06:16:20;;;;;;;2.13;1.87;;;10.10;99.90;;;;;;5010430;28;20317;-85
2022/11/04 06:18:47;;;;;;;3.50;1.60;;;10.10;99.90;;;;;;5009476;28;20294;-82
2022/11/04 06:21:25;;;;;;;4.60;2.47;;;10.10;99.90;;;;;;5009204;28;20207;-85
2022/11/04 06:23:53;;;;;;;1.90;1.70;;;10.10;99.90;;;;;;4996377;28;20242;-87
2022/11/04 06:26:20;;;;;;;3.60;2.20;;;10.10;99.90;;;;;;4991106;28;20593;-85
2022/11/04 06:28:49;;;;;;;2.93;1.80;;;10.10;99.90;;;;;;4989878;28;20231;-83
2022/11/04 06:31:16;;;;;;;2.87;2.00;;;10.20;99.90;;;;;;4991921;28;20519;-84
2022/11/04 06:33:44;;;;;;;4.73;2.77;;;10.20;99.90;;;;;;4987513;28;20208;-83
2022/11/04 06:36:13;;;;;;;6.30;2.50;;;10.20;99.90;;;;;;4987744;28;20216;-82
2022/11/04 06:38:40;;;;;;;5.30;2.17;;;10.20;99.90;;;;;;4988296;28;20207;-81
2022/11/04 06:41:10;;;;;;;3.97;2.00;;;10.20;99.90;;;;;;4987799;28;20644;-82
2022/11/04 06:43:38;;;;;;;3.10;2.13;;;10.20;99.90;;;;;;5006280;28;20234;-82
2022/11/04 06:46:06;;;;;;;3.13;2.07;;;10.20;99.90;;;;;;5008624;28;20210;-82
2022/11/04 06:48:33;;;;;;;5.27;2.20;;;10.20;99.90;;;;;;5015375;28;20236;-86
2022/11/04 06:51:00;;;;;;;2.67;1.70;;;10.20;99.90;;;;;;5024742;28;20635;-84
2022/11/04 06:53:29;;;;;;;2.80;2.00;;;10.20;99.90;;;;;;5026978;28;20309;-81
2022/11/04 06:56:02;;;;;;;3.23;1.73;;;10.20;99.90;;;;;;5017868;28;20211;-83
2022/11/04 06:58:29;;;;;;;3.87;2.13;;;10.20;99.90;;;;;;5007588;28;20211;-83
2022/11/04 07:00:56;;;;;;;3.57;1.90;;;10.20;99.90;;;;;;5005880;28;20362;-89
2022/11/04 07:03:25;;;;;;;3.27;2.10;;;10.20;99.90;;;;;;5010832;28;20211;-88
2022/11/04 07:05:52;;;;;;;4.70;2.23;;;10.20;99.90;;;;;;5010233;28;20214;-85
2022/11/04 07:08:19;;;;;;;3.53;2.07;;;10.20;99.90;;;;;;5010992;28;20234;-89
2022/11/04 07:10:46;;;;;;;2.77;1.70;;;10.20;99.90;;;;;;5010514;28;20780;-89
2022/11/04 07:13:13;;;;;;;4.63;2.00;;;10.20;99.90;;;;;;5011506;28;20309;-90
2022/11/04 07:15:40;;;;;;;3.13;1.77;;;10.20;99.90;;;;;;5009245;28;20225;-89
2022/11/04 07:18:07;;;;;;;3.40;2.10;;;10.10;99.90;;;;;;5013640;28;20676;-88
2022/11/04 07:20:37;;;;;;;3.57;2.10;;;10.10;99.90;;;;;;5027778;28;20217;-91
2022/11/04 07:23:04;;;;;;;3.50;1.70;;;10.10;99.90;;;;;;5025952;28;20211;-90
2022/11/04 07:25:31;;;;;;;4.80;1.97;;;10.00;99.90;;;;;;5010581;28;20526;-90
2022/11/04 07:27:59;;;;;;;2.30;1.70;;;10.00;99.90;;;;;;5010840;28;20229;-89
2022/11/04 07:30:25;;;;;;;2.87;1.80;;;10.00;99.90;;;;;;5024418;28;20206;-90
2022/11/04 07:32:52;;;;;;;3.07;1.80;;;10.00;99.90;;;;;;5030453;28;20207;-90
2022/11/04 07:35:19;;;;;;;2.77;1.87;;;10.00;99.90;;;;;;5030618;28;20578;-89
2022/11/04 07:37:48;;;;;;;3.07;1.80;;;10.00;99.90;;;;;;5022078;28;20203;-86
2022/11/04 07:40:17;;;;;;;2.50;1.70;;;10.00;99.90;;;;;;5007792;28;20209;-85
2022/11/04 07:42:44;;;;;;;4.93;2.83;;;10.00;99.90;;;;;;5020267;28;20622;-84
2022/11/04 07:45:11;;;;;;;5.83;2.40;;;10.00;99.90;;;;;;5026923;28;20630;-86
2022/11/04 07:47:38;;;;;;;5.70;3.00;;;10.10;99.90;;;;;;5028221;28;20935;-91
2022/11/04 07:50:06;;;;;;;4.23;2.63;;;10.10;99.90;;;;;;5027007;28;20235;-90
2022/11/04 07:52:32;;;;;;;2.50;1.83;;;10.10;99.90;;;;;;5010640;28;20203;-87
2022/11/04 07:55:01;;;;;;;6.33;2.57;;;10.00;99.90;;;;;;5010447;28;20203;-86
2022/11/04 07:57:28;;;;;;;3.40;2.70;;;10.00;99.90;;;;;;5012606;28;20321;-83
2022/11/04 07:59:57;;;;;;;4.63;2.80;;;10.00;99.90;;;;;;5021206;28;20217;-85
2022/11/04 08:02:24;;;;;;;5.30;2.73;;;10.00;99.90;;;;;;5023161;28;20433;-82
2022/11/04 08:04:51;;;;;;;5.73;3.30;;;10.00;99.90;;;;;;5023562;28;20301;-85
2022/11/04 08:07:18;;;;;;;4.43;2.83;;;10.00;99.90;;;;;;5022227;28;20209;-84
2022/11/04 08:09:45;;;;;;;5.33;2.40;;;10.10;99.90;;;;;;5022661;28;20768;-83
2022/11/04 08:12:13;;;;;;;6.50;3.00;;;10.10;99.90;;;;;;5023018;28;20207;-81
2022/11/04 08:14:40;;;;;;;6.73;3.00;;;10.00;99.90;;;;;;5015207;28;20888;-88
2022/11/04 08:17:07;;;;;;;2.70;2.30;;;10.00;99.90;;;;;;5036025;28;20517;-86
2022/11/04 08:19:34;;;;;;;5.20;2.83;;;10.10;99.90;;;;;;5005600;28;20564;-84
2022/11/04 08:22:02;;;;;;;4.67;2.30;;;10.10;99.90;;;;;;5006283;28;20591;-80
2022/11/04 08:24:29;;;;;;;3.70;2.67;;;10.10;99.90;;;;;;5011791;28;20203;-81
2022/11/04 08:26:56;;;;;;;3.03;2.13;;;10.10;99.90;;;;;;5023916;28;20206;-81
2022/11/04 08:29:24;;;;;;;4.60;2.23;;;10.20;99.90;;;;;;5024890;28;20227;-85
2022/11/04 08:31:51;;;;;;;3.87;2.60;;;10.20;99.90;;;;;;5024391;28;20324;-83
2022/11/04 08:34:18;;;;;;;2.87;2.10;;;10.20;99.90;;;;;;5006758;28;20219;-85
2022/11/04 08:36:45;;;;;;;4.07;2.17;;;10.20;99.90;;;;;;5007236;28;20199;-82
2022/11/04 08:39:13;;;;;;;7.40;2.73;;;10.20;99.90;;;;;;5009259;28;20203;-85
2022/11/04 08:41:44;;;;;;;3.40;2.23;;;10.30;99.90;;;;;;5008471;28;20207;-82
2022/11/04 08:44:12;;;;;;;3.03;2.40;;;10.30;99.90;;;;;;5009401;28;20520;-82
2022/11/04 08:46:42;;;;;;;5.47;2.70;;;10.40;99.90;;;;;;5008484;28;20912;-81
2022/11/04 08:49:09;;;;;;;4.67;2.73;;;10.60;99.90;;;;;;5008952;28;20243;-84
2022/11/04 08:51:38;;;;;;;3.30;2.87;;;10.70;99.90;;;;;;5008906;28;20273;-80
2022/11/04 08:54:05;;;;;;;7.80;3.47;;;10.90;99.90;;;;;;5016804;28;20226;-84
2022/11/04 08:56:34;;;;;;;6.70;3.40;;;11.10;99.90;;;;;;5029463;28;20202;-83
2022/11/04 08:59:03;;;;;;;6.60;3.20;;;11.20;99.90;;;;;;5016034;28;20207;-85
2022/11/04 09:01:31;;;;;;;5.60;2.83;;;11.30;99.90;;;;;;5012003;28;20877;-88
2022/11/04 09:04:00;;;;;;;5.23;3.00;;;11.30;99.90;;;;;;5013651;28;20211;-87
2022/11/04 09:06:30;;;;;;;5.63;2.43;;;11.40;99.90;;;;;;5010330;28;20211;-87
2022/11/04 09:09:02;;;;;;;5.37;2.83;;;11.50;99.90;;;;;;5012588;28;20223;-87
2022/11/04 09:11:30;;;;;;;4.83;3.00;;;11.50;99.90;;;;;;5015181;28;20289;-83
2022/11/04 09:13:59;;;;;;;5.70;2.87;;;11.60;99.90;;;;;;5009867;28;20199;-87
2022/11/04 09:16:28;;;;;;;3.97;2.50;;;11.50;99.90;;;;;;5011620;28;20211;-88
2022/11/04 09:18:57;;;;;;;3.07;2.37;;;11.60;99.90;;;;;;5010863;28;20207;-85
2022/11/04 09:21:26;;;;;;;3.40;1.80;;;11.60;99.90;;;;;;5011429;28;20213;-85
2022/11/04 09:23:55;;;;;;;4.10;2.30;;;11.60;99.90;;;;;;5011123;28;20209;-87
2022/11/04 09:26:23;;;;;;;2.70;1.83;;;11.70;99.90;;;;;;5022255;28;20215;-86
2022/11/04 09:28:54;;;;;;;2.33;1.80;;;11.70;99.90;;;;;;5031340;28;20222;-86
2022/11/04 09:31:21;;;;;;;3.47;1.70;;;11.70;99.90;;;;;;5018375;28;20211;-86
2022/11/04 09:33:48;;;;;;;3.67;1.87;;;11.80;99.90;;;;;;5008142;28;20300;-82
2022/11/04 09:36:15;;;;;;;3.63;1.70;;;11.80;99.90;;;;;;5007253;28;20278;-84
2022/11/04 09:38:43;;;;;;;2.97;1.67;;;11.80;99.90;;;;;;5008085;28;20219;-84
2022/11/04 09:41:28;;;;;;;4.47;1.70;;;11.90;99.90;;;;;;5020106;28;20234;-88
2022/11/04 09:44:01;;;;;;;3.20;1.77;;;11.90;99.90;;;;;;5018816;28;20221;-82
2022/11/04 09:46:32;;;;;;;2.83;1.50;;;11.90;99.90;;;;;;5006533;28;20208;-82
2022/11/04 09:49:02;;;;;;;1.60;1.40;;;12.00;99.90;;;;;;5019437;28;20238;-84
2022/11/04 09:51:30;;;;;;;2.90;1.60;;;11.90;99.90;;;;;;5024753;28;20207;-81
2022/11/04 09:54:02;;;;;;;2.27;1.40;;;12.00;99.90;;;;;;5040674;28;20222;-85
2022/11/04 09:56:34;;;;;;;3.97;1.80;;;12.00;99.90;;;;;;5013954;28;20207;-84
2022/11/04 09:59:02;;;;;;;2.47;1.50;;;12.10;99.90;;;;;;5014336;28;20233;-85
2022/11/04 10:01:37;;;;;;;4.97;2.00;;;12.10;99.90;;;;;;5032008;28;20215;-86
2022/11/04 10:04:20;;;;;;;6.43;2.30;;;12.20;99.90;;;;;;5034230;28;20198;-88
2022/11/04 10:07:06;;;;;;;7.57;2.20;;;12.20;99.90;;;;;;5030882;28;20195;-84
2022/11/04 10:09:46;;;;;;;4.83;1.80;;;12.10;99.90;;;;;;5039867;28;20227;-88
2022/11/04 10:12:25;;;;;;;3.67;1.90;;;12.20;99.90;;;;;;5009858;28;20198;-88
2022/11/04 10:15:12;;;;;;;2.40;1.80;;;12.20;99.90;;;;;;5008706;28;20195;-81
2022/11/04 10:17:54;;;;;;;4.00;1.57;;;12.30;99.90;;;;;;5011388;28;20222;-84
2022/11/04 10:20:34;;;;;;;3.30;1.43;;;12.30;99.90;;;;;;5007319;28;20215;-81
2022/11/04 10:23:10;;;;;;;3.53;1.10;;;12.30;99.90;;;;;;5014246;28;20603;-82
2022/11/04 10:25:48;;;;;;;3.43;1.10;;;12.30;99.90;;;;;;5021454;28;20207;-84
2022/11/04 10:28:18;;;;;;;3.40;0.90;;;12.30;99.90;;;;;;5012452;28;20796;-83
2022/11/04 10:30:48;;;;;;;2.60;0.93;;;12.20;99.90;;;;;;5023281;28;20724;-84
2022/11/04 10:33:21;;;;;;;5.50;1.10;;;12.30;99.90;;;;;;5025574;28;20199;-81
2022/11/04 10:35:51;;;;;;;4.07;1.10;;;12.20;99.90;;;;;;5024986;28;20195;-82
2022/11/04 10:38:22;;;;;;;4.60;1.10;;;12.20;99.90;;;;;;5025358;28;20238;-81
2022/11/04 10:40:53;;;;;;;2.30;0.90;;;12.10;99.90;;;;;;5023590;28;20253;-86
2022/11/04 10:43:31;;;;;;;3.50;0.90;;;12.10;99.90;;;;;;5020342;28;20238;-83
2022/11/04 10:46:09;;;;;;;1.77;0.70;;;12.10;99.90;;;;;;5005560;28;20195;-81
2022/11/04 10:48:42;;;;;;;1.53;0.90;;;12.10;99.90;;;;;;5005659;28;20243;-83
2022/11/04 10:51:09;;;;;;;1.10;0.80;;;12.20;99.90;;;;;;5007022;28;20763;-81
2022/11/04 10:53:36;;;;;;;2.27;1.10;;;12.20;99.90;;;;;;5005462;28;20223;-82
2022/11/04 10:56:11;;;;;;;3.53;1.37;;;12.30;99.90;;;;;;5005392;28;20545;-84
2022/11/04 10:58:45;;;;;;;3.00;0.97;;;12.30;99.90;;;;;;5004523;28;20191;-88
2022/11/04 11:01:27;;;;;;;2.20;1.20;;;12.40;99.90;;;;;;5011533;28;20206;-88
2022/11/04 11:03:54;;;;;;;3.63;1.00;;;12.40;99.90;;;;;;5011368;28;20199;-87
2022/11/04 11:06:26;;;;;;;2.43;1.20;;;12.50;99.90;;;;;;5022003;28;20202;-87
2022/11/04 11:08:57;;;;;;;3.57;1.07;;;12.50;99.90;;;;;;5013824;28;20247;-86
2022/11/04 11:11:44;;;;;;;4.03;1.20;;;12.40;99.90;;;;;;5011394;28;20279;-89
2022/11/04 11:14:19;;;;;;;6.43;1.53;;;12.40;99.90;;;;;;5011368;28;20957;-88
2022/11/04 11:16:47;;;;;;;3.30;1.07;;;12.40;99.90;;;;;;5025434;28;20206;-82
2022/11/04 11:19:19;;;;;;;3.87;1.17;;;12.30;99.90;;;;;;5030705;28;20229;-83
2022/11/04 11:21:48;;;;;;;6.20;1.37;;;12.30;99.90;;;;;;5043546;28;20685;-83
2022/11/04 11:24:19;;;;;;;7.33;1.40;;;12.20;99.90;;;;;;5025677;28;20621;-82
2022/11/04 11:26:50;;;;;;;4.60;1.10;;;12.10;99.90;;;;;;5026776;28;20206;-85
2022/11/04 11:29:22;;;;;;;4.93;1.20;;;12.00;99.90;;;;;;5023353;28;20258;-84
2022/11/04 11:31:50;;;;;;;2.80;0.90;;;12.00;99.90;;;;;;5006731;28;20600;-84
2022/11/04 11:34:22;;;;;;;3.87;1.00;;;11.90;99.90;;;;;;5006966;28;20212;-83
2022/11/04 11:36:50;;;;;;;3.73;1.00;;;11.90;99.90;;;;;;5006327;28;20253;-81
2022/11/04 11:39:21;;;;;;;3.17;1.20;;;11.90;99.90;;;;;;5007185;28;20209;-84
2022/11/04 11:41:54;;;;;;;1.43;0.90;;;11.90;99.90;;;;;;5007341;28;20260;-84
2022/11/04 11:44:31;;;;;;;5.00;1.07;;;11.90;99.90;;;;;;5005707;28;20647;-81
2022/11/04 11:47:01;;;;;;;3.73;1.20;;;11.90;99.90;;;;;;5006008;28;20209;-82
2022/11/04 11:49:32;;;;;;;4.13;1.10;;;11.90;99.90;;;;;;5007446;28;20804;-86
2022/11/04 11:52:27;;;;;;;4.93;1.20;;;11.90;99.90;;;;;;4991998;28;20237;-83
2022/11/04 11:54:58;;;;;;;3.17;1.50;;;11.90;99.90;;;;;;5006602;28;20199;-84
2022/11/04 11:57:35;;;;;;;4.13;1.60;;;11.90;99.90;;;;;;5005135;28;20709;-82
2022/11/04 12:00:08;;;;;;;3.53;1.40;;;11.90;99.90;;;;;;5005457;28;20207;-85
2022/11/04 12:02:42;;;;;;;7.90;1.90;;;11.90;99.90;;;;;;5006081;28;20211;-83
2022/11/04 12:05:10;;;;;;;5.70;1.17;;;11.90;99.90;;;;;;5006642;28;20205;-81
2022/11/04 12:07:47;;;;;;;3.13;1.13;;;11.90;99.90;;;;;;5009379;28;20206;-83
2022/11/04 12:10:24;;;;;;;5.87;1.33;;;11.90;99.90;;;;;;5025896;28;20214;-82
2022/11/04 12:13:04;;;;;;;2.53;1.00;;;11.80;99.90;;;;;;5019802;28;20506;-81
2022/11/04 12:15:49;;;;;;;6.57;1.63;;;11.70;99.90;;;;;;5024580;28;20214;-83
2022/11/04 12:19:00;;;;;;;5.73;1.40;;;11.70;99.90;;;;;;5027139;28;20195;-81
2022/11/04 12:21:32;;;;;;;6.67;1.60;;;11.70;99.90;;;;;;4932858;28;20610;-82
2022/11/04 12:24:05;;;;;;;5.53;1.30;;;11.70;99.90;;;;;;4930005;29;20213;-80
2022/11/04 12:26:39;;;;;;;6.17;1.30;;;11.80;99.90;;;;;;4983495;28;20209;-82
2022/11/04 12:29:20;;;;;;;4.93;1.50;;;11.80;99.90;;;;;;5009073;28;20219;-83
2022/11/04 12:31:53;;;;;;;3.57;1.30;;;11.90;99.90;;;;;;5008268;28;20926;-82
2022/11/04 12:34:33;;;;;;;4.17;1.27;;;11.90;99.90;;;;;;5007803;28;20215;-80
2022/11/04 12:37:16;;;;;;;4.13;1.37;;;11.90;99.90;;;;;;5008565;28;20195;-81
2022/11/04 12:39:59;;;;;;;5.00;1.37;;;11.90;99.90;;;;;;5008975;28;20683;-84
2022/11/04 12:42:36;;;;;;;5.30;1.30;;;11.90;99.90;;;;;;5009154;28;20430;-82
2022/11/04 12:45:20;;;;;;;7.73;3.00;;;11.90;99.90;;;;;;5008493;28;20844;-81
2022/11/04 12:47:48;;;;;;;4.57;2.67;;;12.00;99.90;;;;;;5005518;28;20584;-86
2022/11/04 12:50:33;;;;;;;3.97;2.50;;;12.10;99.90;;;;;;5009364;28;20219;-82
2022/11/04 12:53:29;;;;;;;4.30;2.60;;;12.10;99.90;;;;;;5006458;28;20234;-82
2022/11/04 12:56:06;;;;;;;7.97;3.10;;;12.10;99.90;;;;;;5007489;28;20203;-80
2022/11/04 12:58:43;;;;;;;4.63;2.47;;;12.10;99.90;;;;;;5006855;28;20203;-87
2022/11/04 13:01:17;;;;;;;6.17;2.73;;;12.10;99.90;;;;;;5007551;28;20874;-82
2022/11/04 13:03:50;;;;;;;6.07;3.20;;;12.20;99.90;;;;;;5010699;28;20200;-81
2022/11/04 13:06:22;;;;;;;4.73;2.13;;;12.20;99.90;;;;;;5005635;28;20261;-79
2022/11/04 13:08:53;;;;;;;6.57;2.87;;;12.20;99.90;;;;;;5005530;28;20199;-80
2022/11/04 13:11:25;;;;;;;6.33;3.07;;;12.30;99.90;;;;;;5007492;28;20207;-80
2022/11/04 13:13:58;;;;;;;8.00;3.07;;;12.30;99.90;;;;;;5007465;28;20603;-80
2022/11/04 13:16:28;;;;;;;4.40;1.87;;;12.30;99.90;;;;;;5007347;28;20619;-85
2022/11/04 13:18:56;;;;;;;11.27;5.73;;;12.30;99.90;;;;;;5012341;28;20203;-80
2022/11/04 13:21:27;;;;;;;11.67;4.53;;;12.40;99.90;;;;;;5025326;28;20198;-79
2022/11/04 13:23:58;;;;;;;7.20;2.07;;;12.40;99.90;;;;;;5022224;28;20206;-79
2022/11/04 13:26:25;;;;;;;3.80;1.50;;;12.40;99.90;;;;;;5025094;28;20209;-81
2022/11/04 13:28:58;;;;;;;2.20;1.20;;;12.40;99.90;;;;;;5024442;28;20213;-80
2022/11/04 13:31:34;;;;;;;5.50;1.70;;;12.50;99.90;;;;;;5024397;28;20226;-80
2022/11/04 13:34:11;;;;;;;6.10;1.67;;;12.50;99.90;;;;;;5025937;28;20202;-84
2022/11/04 13:36:44;;;;;;;5.07;1.27;;;12.40;99.90;;;;;;5008780;28;20288;-82